Edmundson, Missouri
Current Conditions -  °F | °C
As of 11:51 PM on Saturday 20 Dec 2014 (Local Time) from KSTL Reporting Station
Overcast Overcast  
Wind Chill: 37°   Ceiling: 2600
Heat Index: 42°   Visibility: 10mi
Dew Point: 33°   Wind: 8mph
Humidity: 70%   Direction: 160°SSE
Pressure: 30.24"   Gusts: NA
Location:  38.7422°N, 90.3457°W
Report Text: KSTL 210551Z 16007KT 10SM OVC026 06/01 A3024 RMK AO2 SLP246 T00560006 10061 20056 400610022 56002
Loading
Personal Weather Stations






























Interactive Weather Map New forecast layout! Learn more

10-Day Weather Forecast

Advertisements
Track Severe Weather on mobile